createdAt,value
2019-05-23T00:00:54.923Z,6.81
2019-05-23T00:03:28.596Z,6.81
2019-05-23T00:06:02.117Z,6.65
2019-05-23T00:08:32.330Z,6.63
2019-05-23T00:11:25.955Z,6.62
2019-05-23T00:14:05.405Z,6.75
2019-05-23T00:16:36.553Z,6.78
2019-05-23T00:19:06.932Z,6.64
2019-05-23T00:21:39.192Z,6.63
2019-05-23T00:24:10.754Z,6.50
2019-05-23T00:26:41.265Z,6.33
2019-05-23T00:29:12.422Z,6.38
2019-05-23T00:31:50.434Z,6.30
2019-05-23T00:34:21.524Z,6.42
2019-05-23T00:36:51.376Z,6.36
2019-05-23T00:39:22.842Z,6.35
2019-05-23T00:41:53.822Z,6.19
2019-05-23T00:44:24.552Z,5.89
2019-05-23T00:46:57.366Z,5.77
2019-05-23T00:49:29.175Z,5.93
2019-05-23T00:51:59.940Z,6.06
2019-05-23T00:54:30.640Z,6.15
2019-05-23T00:57:00.727Z,6.08
2019-05-23T00:59:31.053Z,6.17
2019-05-23T01:02:01.191Z,6.18
2019-05-23T03:15:01.341Z,5.62
2019-05-23T03:17:34.706Z,5.25
2019-05-23T03:20:08.558Z,5.24
2019-05-23T03:22:48.789Z,5.54
2019-05-23T03:26:16.699Z,5.48
2019-05-23T03:28:46.845Z,5.40
2019-05-23T03:31:30.784Z,5.27
2019-05-23T03:33:57.057Z,5.14
2019-05-23T03:36:28.224Z,4.91
2019-05-23T03:38:58.366Z,5.07
2019-05-23T03:41:30.349Z,5.22
2019-05-23T03:44:01.495Z,5.17
2019-05-23T03:46:32.527Z,5.16
2019-05-23T03:49:03.719Z,5.04
2019-05-23T03:51:34.082Z,4.90
2019-05-23T03:54:05.844Z,4.97
2019-05-23T03:56:37.716Z,5.24
2019-05-23T03:59:08.006Z,5.46
2019-05-23T04:01:47.556Z,5.57
2019-05-23T04:04:12.783Z,5.78
2019-05-23T04:06:43.607Z,5.98
2019-05-23T04:09:14.076Z,6.12
2019-05-23T04:11:44.242Z,6.02
2019-05-23T04:14:14.326Z,6.06
2019-05-23T04:16:44.390Z,6.04
2019-05-23T04:19:14.515Z,6.16
2019-05-23T04:21:44.705Z,6.23
2019-05-23T04:24:15.521Z,6.42
2019-05-23T04:26:45.887Z,6.51
2019-05-23T04:29:16.133Z,6.41
2019-05-23T04:32:05.401Z,6.76
2019-05-23T04:34:18.292Z,6.90
2019-05-23T04:36:48.581Z,6.91
2019-05-23T04:39:19.175Z,7.09
2019-05-23T04:41:49.164Z,7.45
2019-05-23T04:44:19.354Z,8.01
2019-05-23T04:46:50.083Z,8.22
2019-05-23T04:49:20.131Z,8.79
2019-05-23T04:51:50.353Z,8.69
2019-05-23T04:54:20.335Z,9.02
2019-05-23T04:56:50.616Z,9.28
2019-05-23T04:59:20.706Z,9.59
2019-05-23T05:01:51.736Z,9.79
2019-05-23T05:04:21.963Z,9.90
2019-05-23T05:06:52.357Z,9.65
2019-05-23T05:09:32.187Z,9.67
2019-05-23T05:12:03.819Z,9.76
2019-05-23T05:14:34.156Z,9.89
2019-05-23T05:17:04.883Z,10.04
2019-05-23T05:19:35.035Z,11.17
2019-05-23T05:22:05.108Z,10.48
2019-05-23T05:24:39.805Z,10.45
2019-05-23T05:27:07.188Z,10.73
2019-05-23T05:29:37.184Z,10.99
2019-05-23T05:32:08.946Z,10.64
2019-05-23T05:34:39.425Z,11.08
2019-05-23T05:37:09.453Z,12.16
2019-05-23T05:39:39.663Z,13.22
2019-05-23T05:42:10.914Z,13.55
2019-05-23T05:44:41.305Z,12.84
2019-05-23T05:47:11.647Z,13.45
2019-05-23T05:49:42.914Z,14.75
2019-05-23T05:52:13.376Z,14.73
2019-05-23T05:54:43.524Z,14.38
2019-05-23T05:57:13.504Z,14.64
2019-05-23T05:59:43.696Z,15.05
2019-05-23T06:02:15.439Z,15.82
2019-05-23T06:04:45.565Z,15.66
2019-05-23T06:07:24.852Z,15.50
2019-05-23T06:09:55.092Z,15.98
2019-05-23T06:12:25.335Z,15.68
2019-05-23T06:14:55.391Z,16.58
2019-05-23T06:17:25.996Z,16.94
2019-05-23T06:19:56.036Z,18.08
2019-05-23T06:22:27.741Z,19.42
2019-05-23T06:24:58.343Z,20.17
2019-05-23T06:27:28.510Z,19.40
2019-05-23T06:29:58.829Z,18.17
2019-05-23T06:32:29.856Z,18.72
2019-05-23T06:34:59.954Z,19.29
2019-05-23T06:37:34.155Z,18.74
2019-05-23T06:40:02.515Z,18.96
2019-05-23T06:42:33.111Z,18.04
2019-05-23T06:45:03.801Z,18.30
2019-05-23T06:47:34.389Z,20.31
2019-05-23T06:50:06.123Z,20.73
2019-05-23T06:52:36.236Z,21.88
2019-05-23T06:55:06.606Z,21.34
2019-05-23T06:57:37.155Z,21.98
2019-05-23T07:00:07.471Z,20.95
2019-05-23T07:02:37.984Z,21.97
2019-05-23T07:05:08.058Z,22.17
2019-05-23T07:07:38.641Z,23.17
2019-05-23T07:10:09.625Z,20.89
2019-05-23T07:12:39.861Z,20.73
2019-05-23T07:15:11.500Z,20.61
2019-05-23T07:17:41.493Z,22.27
2019-05-23T07:20:12.329Z,22.28
2019-05-23T07:22:42.562Z,22.68
2019-05-23T07:25:13.354Z,22.56
2019-05-23T07:27:43.798Z,23.28
2019-05-23T07:30:20.602Z,24.66
2019-05-23T07:32:50.757Z,23.75
2019-05-23T07:35:20.981Z,24.02
2019-05-23T07:37:51.071Z,22.18
2019-05-23T07:40:21.604Z,21.22
2019-05-23T07:42:52.115Z,23.51
2019-05-23T07:45:27.336Z,24.97
2019-05-23T07:47:57.686Z,25.95
2019-05-23T07:50:28.181Z,25.24
2019-05-23T07:52:58.885Z,26.22
2019-05-23T07:55:34.497Z,25.76
2019-05-23T07:58:05.982Z,26.23
2019-05-23T08:00:40.297Z,26.73
2019-05-23T08:03:11.010Z,27.32
2019-05-23T08:05:41.476Z,27.60
2019-05-23T08:08:11.775Z,28.05
2019-05-23T08:10:41.733Z,26.65
2019-05-23T08:13:11.860Z,26.21
2019-05-23T08:15:42.425Z,26.64
2019-05-23T08:18:13.057Z,26.68
2019-05-23T08:20:43.297Z,27.82
2019-05-23T08:23:13.498Z,29.53
2019-05-23T08:25:43.607Z,30.24
2019-05-23T08:28:13.932Z,26.35
2019-05-23T08:30:44.003Z,25.69
2019-05-23T08:33:15.847Z,27.70
2019-05-23T08:35:47.140Z,27.13
2019-05-23T08:38:17.720Z,26.51
2019-05-23T08:40:47.638Z,27.93
2019-05-23T08:43:17.810Z,29.21
2019-05-23T08:45:48.810Z,27.04
2019-05-23T08:48:18.722Z,27.69
2019-05-23T08:50:51.391Z,26.10
2019-05-23T08:53:21.275Z,27.92
2019-05-23T08:55:51.647Z,27.81
2019-05-23T08:58:22.057Z,24.60
2019-05-23T09:00:52.102Z,26.41
2019-05-23T09:03:22.934Z,26.49
2019-05-23T09:05:54.542Z,27.04
2019-05-23T09:08:24.524Z,27.17
2019-05-23T09:10:54.649Z,27.74
2019-05-23T09:13:24.811Z,29.29
2019-05-23T09:15:54.865Z,27.79
2019-05-23T09:18:25.147Z,27.98
2019-05-23T09:20:55.288Z,29.18
2019-05-23T09:23:25.802Z,29.37
2019-05-23T09:25:56.169Z,28.16
2019-05-23T09:28:26.192Z,27.97
2019-05-23T09:30:56.293Z,28.32
2019-05-23T09:33:26.380Z,28.05
2019-05-23T09:35:56.375Z,30.82
2019-05-23T09:38:26.363Z,30.49
2019-05-23T09:40:56.372Z,31.46
2019-05-23T09:43:26.606Z,32.10
2019-05-23T09:45:56.495Z,33.54
2019-05-23T09:48:27.195Z,33.00
2019-05-23T09:50:57.202Z,32.90
2019-05-23T09:53:27.633Z,29.78
2019-05-23T09:55:58.039Z,29.88
2019-05-23T09:58:28.389Z,30.51
2019-05-23T10:00:58.787Z,32.13
2019-05-23T10:03:28.755Z,32.64
2019-05-23T10:05:58.654Z,31.37
2019-05-23T10:08:28.633Z,31.08
2019-05-23T10:10:58.618Z,30.21
2019-05-23T10:13:38.521Z,28.70
2019-05-23T10:16:06.670Z,29.70
2019-05-23T10:18:37.770Z,29.46
2019-05-23T10:21:08.019Z,33.05
2019-05-23T10:23:38.039Z,33.69
2019-05-23T10:26:08.170Z,33.10
2019-05-23T10:28:38.248Z,32.91
2019-05-23T10:31:09.883Z,32.38
2019-05-23T10:33:40.039Z,33.69
2019-05-23T10:36:10.196Z,33.84
2019-05-23T10:38:40.203Z,34.35
2019-05-23T10:41:10.486Z,34.97
2019-05-23T10:43:40.557Z,31.84
2019-05-23T10:46:11.211Z,31.58
2019-05-23T10:48:41.900Z,30.14
2019-05-23T10:51:11.972Z,33.30
2019-05-23T10:53:42.048Z,33.21
2019-05-23T10:56:12.376Z,32.73
2019-05-23T10:58:42.785Z,31.75
2019-05-23T11:01:13.752Z,33.52
2019-05-23T11:03:44.089Z,35.08
2019-05-23T11:06:16.483Z,35.45
2019-05-23T11:08:46.057Z,36.97
2019-05-23T11:11:16.277Z,37.47
2019-05-23T11:13:46.900Z,34.62
2019-05-23T11:16:17.921Z,36.34
2019-05-23T11:18:47.839Z,31.16
2019-05-23T11:21:17.837Z,31.77
2019-05-23T11:23:51.358Z,33.77
2019-05-23T11:26:21.568Z,34.54
2019-05-23T11:28:51.583Z,32.22
2019-05-23T11:31:22.635Z,30.38
2019-05-23T11:33:52.622Z,32.66
2019-05-23T11:36:34.778Z,32.85
2019-05-23T11:38:55.318Z,32.92
2019-05-23T11:41:25.569Z,33.74
2019-05-23T11:43:55.507Z,33.44
2019-05-23T11:46:31.571Z,32.61
2019-05-23T11:49:02.056Z,32.79
2019-05-23T11:51:32.532Z,34.82
2019-05-23T11:54:08.128Z,35.27
2019-05-23T11:56:37.069Z,33.53
2019-05-23T11:59:07.476Z,34.83
2019-05-23T12:01:57.386Z,36.59
2019-05-23T12:04:31.969Z,36.57
2019-05-23T12:07:19.931Z,33.50
2019-05-23T12:09:50.092Z,33.62
2019-05-23T12:12:20.536Z,33.08
2019-05-23T12:14:50.470Z,30.37
2019-05-23T12:17:22.002Z,31.39
2019-05-23T12:19:52.214Z,33.56
2019-05-23T12:22:22.949Z,36.45
2019-05-23T12:24:52.999Z,35.33
2019-05-23T12:27:23.003Z,36.24
2019-05-23T12:29:53.059Z,33.29
2019-05-23T12:32:23.178Z,34.36
2019-05-23T12:35:09.664Z,36.03
2019-05-23T12:37:25.045Z,33.84
2019-05-23T12:39:55.651Z,36.03
2019-05-23T12:42:25.735Z,33.48
2019-05-23T12:44:55.773Z,30.46
2019-05-23T12:48:02.559Z,33.24
2019-05-23T12:50:38.599Z,34.05
2019-05-23T12:53:10.151Z,34.65
2019-05-23T12:55:40.135Z,34.02
2019-05-23T12:58:10.139Z,32.96
2019-05-23T13:00:52.494Z,36.56
2019-05-23T13:03:22.946Z,36.79
2019-05-23T13:05:52.915Z,35.93
2019-05-23T13:08:23.364Z,35.92
2019-05-23T13:10:53.475Z,37.23
2019-05-23T13:13:23.432Z,30.46
2019-05-23T13:15:53.411Z,31.96
2019-05-23T13:18:23.672Z,35.39
2019-05-23T13:20:58.746Z,37.96
2019-05-23T13:23:26.421Z,39.07
2019-05-23T13:25:56.367Z,37.78
2019-05-23T13:28:26.517Z,37.31
2019-05-23T13:30:56.506Z,35.86
2019-05-23T13:33:27.593Z,33.72
2019-05-23T13:35:57.562Z,33.10
2019-05-23T13:38:27.796Z,33.45
2019-05-23T13:40:57.813Z,32.73
2019-05-23T13:43:28.188Z,33.26
2019-05-23T13:45:58.161Z,34.76
2019-05-23T13:48:28.561Z,36.94
2019-05-23T13:50:59.268Z,37.35
2019-05-23T13:53:29.595Z,33.62
2019-05-23T13:55:59.928Z,33.25
2019-05-23T13:58:29.966Z,36.35
2019-05-23T14:01:00.461Z,38.15
2019-05-23T14:03:31.853Z,34.93
2019-05-23T14:06:02.158Z,34.64
2019-05-23T14:08:32.082Z,32.77
2019-05-23T14:11:02.121Z,31.99
2019-05-23T14:13:32.555Z,34.82
2019-05-23T14:16:02.805Z,35.41
2019-05-23T14:18:35.085Z,35.87
2019-05-23T14:21:06.078Z,32.86
2019-05-23T14:23:36.204Z,32.92
2019-05-23T14:26:08.198Z,34.82
2019-05-23T14:28:38.377Z,35.87
2019-05-23T14:31:23.668Z,35.86
2019-05-23T14:34:13.025Z,34.77
2019-05-23T14:37:00.360Z,34.10
2019-05-23T14:39:37.516Z,33.77
2019-05-23T14:42:27.051Z,33.92
2019-05-23T14:44:57.706Z,33.73
2019-05-23T14:47:50.412Z,32.44
2019-05-23T14:50:47.516Z,34.50
2019-05-23T14:53:19.486Z,34.91
2019-05-23T14:55:50.625Z,32.98
2019-05-23T14:58:21.195Z,32.29
2019-05-23T15:00:51.773Z,32.42
2019-05-23T15:03:21.678Z,32.33
2019-05-23T15:05:51.679Z,31.60
2019-05-23T15:08:22.141Z,32.11
2019-05-23T15:10:52.408Z,31.32
2019-05-23T15:13:22.363Z,32.94
2019-05-23T15:15:52.415Z,32.67
2019-05-23T15:18:22.341Z,33.31
2019-05-23T15:20:52.372Z,32.40
2019-05-23T15:23:22.555Z,32.40
2019-05-23T15:25:52.523Z,33.26
2019-05-23T15:28:22.424Z,33.67
2019-05-23T15:30:52.918Z,32.89
2019-05-23T15:33:23.899Z,33.38
2019-05-23T15:35:54.055Z,29.54
2019-05-23T15:38:24.031Z,30.04
2019-05-23T15:40:54.141Z,29.51
2019-05-23T15:43:24.172Z,30.34
2019-05-23T15:45:57.575Z,29.32
2019-05-23T15:48:27.555Z,28.43
2019-05-23T15:50:57.599Z,28.66
2019-05-23T15:53:55.645Z,27.96
2019-05-23T15:56:33.716Z,29.76
2019-05-23T15:59:31.784Z,30.45
2019-05-23T16:02:06.471Z,26.81
2019-05-23T16:04:36.833Z,26.25
2019-05-23T16:07:07.242Z,25.99
2019-05-23T16:09:37.343Z,26.54
2019-05-23T16:12:08.193Z,27.29
2019-05-23T16:14:39.007Z,25.51
2019-05-23T16:17:13.204Z,25.99
2019-05-23T16:19:43.273Z,28.03
2019-05-23T16:22:13.579Z,27.88
2019-05-23T16:24:44.230Z,26.01
2019-05-23T16:27:14.177Z,25.95
2019-05-23T16:29:44.379Z,24.56
2019-05-23T16:32:14.455Z,24.56
2019-05-23T16:34:45.454Z,24.58
2019-05-23T16:37:16.266Z,25.00
2019-05-23T16:39:48.825Z,25.17
2019-05-23T16:42:18.067Z,25.88
2019-05-23T16:44:48.228Z,26.11
2019-05-23T16:47:19.570Z,25.56
2019-05-23T16:49:49.481Z,24.68
2019-05-23T16:52:19.663Z,23.50
2019-05-23T16:54:51.776Z,23.30
2019-05-23T16:57:37.647Z,23.11
2019-05-23T17:00:42.934Z,23.17
2019-05-23T17:03:19.734Z,23.36
2019-05-23T17:06:11.137Z,22.64
2019-05-23T17:09:09.251Z,22.84
2019-05-23T17:11:45.336Z,22.89
2019-05-23T17:14:21.048Z,23.38
2019-05-23T17:17:10.889Z,22.74
2019-05-23T17:20:18.191Z,22.74
2019-05-23T17:22:42.918Z,22.14
2019-05-23T17:25:25.675Z,21.71
2019-05-23T17:28:02.402Z,21.57
2019-05-23T17:30:38.539Z,22.01
2019-05-23T17:33:09.716Z,22.23
2019-05-23T17:35:40.417Z,21.66
2019-05-23T17:38:10.479Z,21.16
2019-05-23T17:40:40.494Z,21.26
2019-05-23T17:43:10.810Z,21.23
2019-05-23T17:45:41.216Z,20.92
2019-05-23T17:48:11.271Z,21.08
2019-05-23T17:50:41.412Z,20.81
2019-05-23T17:53:11.489Z,20.75
2019-05-23T17:55:41.605Z,20.77
2019-05-23T17:58:11.701Z,20.86
2019-05-23T18:00:44.466Z,20.72
2019-05-23T18:03:14.743Z,20.85
2019-05-23T18:05:45.243Z,20.70
2019-05-23T18:08:15.968Z,20.48
2019-05-23T18:10:46.433Z,20.29
2019-05-23T18:13:16.388Z,20.12
2019-05-23T18:15:46.625Z,20.02
2019-05-23T18:18:16.718Z,20.17
2019-05-23T18:20:48.516Z,19.84
2019-05-23T18:23:18.743Z,19.78
2019-05-23T18:25:49.496Z,19.65
2019-05-23T18:28:20.178Z,19.63
2019-05-23T18:30:56.966Z,19.43
2019-05-23T18:33:27.126Z,19.17
2019-05-23T18:35:57.227Z,18.81
2019-05-23T18:38:27.259Z,18.59
2019-05-23T18:41:03.216Z,18.38
2019-05-23T18:43:31.788Z,18.17
2019-05-23T18:46:04.872Z,17.92
2019-05-23T18:48:34.960Z,17.67
2019-05-23T18:51:05.429Z,17.60
2019-05-23T18:53:35.845Z,17.40
2019-05-23T18:56:07.378Z,17.31
2019-05-23T18:58:37.547Z,17.25
2019-05-23T19:01:26.556Z,17.08
2019-05-23T19:03:57.056Z,16.96
2019-05-23T19:06:28.586Z,16.87
2019-05-23T19:08:58.630Z,16.71
2019-05-23T19:11:29.648Z,16.54
2019-05-23T19:14:00.167Z,16.29
2019-05-23T19:16:30.377Z,16.47
2019-05-23T19:19:00.627Z,16.24
2019-05-23T19:21:31.514Z,16.07
2019-05-23T19:24:01.999Z,15.92
2019-05-23T19:26:32.714Z,15.80
2019-05-23T19:29:02.687Z,15.60
2019-05-23T19:31:32.850Z,15.51
2019-05-23T19:34:03.941Z,15.39
2019-05-23T19:36:34.422Z,15.30
2019-05-23T19:39:06.229Z,15.33
2019-05-23T19:41:38.286Z,15.41
2019-05-23T19:44:08.532Z,15.32
2019-05-23T19:46:39.415Z,15.00
2019-05-23T19:49:09.784Z,14.87
2019-05-23T19:51:40.411Z,14.70
2019-05-23T19:54:10.411Z,14.53
2019-05-23T19:56:40.617Z,14.38
2019-05-23T19:59:10.819Z,14.24
2019-05-23T20:01:51.415Z,14.21
2019-05-23T20:04:26.197Z,14.17
2019-05-23T20:06:54.650Z,14.05
2019-05-23T20:09:24.801Z,14.16
2019-05-23T20:11:55.325Z,13.98
2019-05-23T20:14:25.313Z,13.99
2019-05-23T20:16:55.291Z,13.95
2019-05-23T20:19:25.389Z,13.85
2019-05-23T20:21:55.498Z,13.80
2019-05-23T20:24:25.687Z,13.59
2019-05-23T20:26:55.954Z,13.48
2019-05-23T20:29:26.392Z,13.55
2019-05-23T20:31:56.307Z,13.44
2019-05-23T20:34:26.772Z,13.39
2019-05-23T20:36:56.974Z,13.25
2019-05-23T20:39:27.257Z,13.02
2019-05-23T20:42:10.316Z,13.12
2019-05-23T20:44:29.414Z,13.24
2019-05-23T20:46:59.759Z,13.09
2019-05-23T20:49:29.912Z,12.95
2019-05-23T20:52:00.014Z,12.82
2019-05-23T20:54:33.461Z,12.69
2019-05-23T20:57:02.306Z,12.66
2019-05-23T20:59:32.411Z,12.57
2019-05-23T21:02:02.597Z,12.30
2019-05-23T21:04:33.952Z,12.27
2019-05-23T21:07:03.965Z,12.46
2019-05-23T21:09:33.985Z,12.41
2019-05-23T21:12:03.924Z,12.33
2019-05-23T21:14:34.614Z,12.07
2019-05-23T21:17:04.819Z,12.03
2019-05-23T21:19:35.235Z,11.95
2019-05-23T21:22:05.319Z,11.80
2019-05-23T21:24:35.797Z,11.77
2019-05-23T21:27:06.148Z,11.67
2019-05-23T21:29:36.552Z,11.49
2019-05-23T21:32:06.999Z,11.38
2019-05-23T21:34:37.219Z,11.44
2019-05-23T21:37:07.228Z,11.41
2019-05-23T21:39:37.399Z,11.40
2019-05-23T21:42:07.366Z,11.59
2019-05-23T21:44:37.706Z,11.62
2019-05-23T21:47:07.615Z,11.37
2019-05-23T21:49:37.685Z,11.40
2019-05-23T21:52:08.122Z,11.31
2019-05-23T21:54:38.137Z,11.11
2019-05-23T21:57:08.372Z,11.07
2019-05-23T21:59:38.395Z,11.13
2019-05-23T22:02:27.143Z,11.01
2019-05-23T22:05:06.241Z,10.99
2019-05-23T22:07:36.325Z,10.70
2019-05-23T22:10:06.870Z,10.72
2019-05-23T22:12:36.911Z,10.56
2019-05-23T22:15:07.362Z,10.54
2019-05-23T22:17:37.330Z,10.50
2019-05-23T22:20:07.336Z,10.45
2019-05-23T22:22:37.262Z,10.48
2019-05-23T22:25:07.733Z,10.48
2019-05-23T22:27:38.330Z,10.22
2019-05-23T22:30:08.549Z,10.24
2019-05-23T22:32:38.759Z,10.15
2019-05-23T22:35:15.496Z,9.96
2019-05-23T22:37:45.393Z,10.01
2019-05-23T22:40:15.546Z,10.20
2019-05-23T22:42:45.451Z,9.94
2019-05-23T22:45:18.422Z,9.77
2019-05-23T22:47:48.468Z,9.84
2019-05-23T22:50:18.646Z,9.77
2019-05-23T22:52:48.760Z,9.87
2019-05-23T22:55:19.130Z,9.79
2019-05-23T22:57:49.162Z,9.83
2019-05-23T23:00:25.998Z,9.84
2019-05-23T23:02:56.103Z,9.90
2019-05-23T23:05:26.204Z,9.90
2019-05-23T23:07:56.329Z,9.85
2019-05-23T23:10:26.478Z,9.79
2019-05-23T23:12:56.478Z,9.83
2019-05-23T23:15:28.468Z,9.79
2019-05-23T23:17:58.519Z,9.62
2019-05-23T23:20:28.657Z,9.38
2019-05-23T23:22:58.551Z,9.32
2019-05-23T23:25:29.427Z,9.35
2019-05-23T23:27:59.483Z,9.41
2019-05-23T23:30:32.345Z,9.16
2019-05-23T23:33:02.320Z,8.98
2019-05-23T23:35:32.368Z,9.20
2019-05-23T23:38:02.307Z,9.30
2019-05-23T23:40:33.110Z,9.13
2019-05-23T23:43:03.119Z,9.03
2019-05-23T23:45:50.936Z,9.10
2019-05-23T23:48:38.417Z,9.11
2019-05-23T23:51:26.140Z,9.16
2019-05-23T23:54:13.325Z,9.13
2019-05-23T23:57:00.895Z,8.97
2019-05-23T23:59:30.211Z,8.78
